sensor_id;sensor_type;location;lat;lon;timestamp;temperature;humidity
13245;DHT22;6689;53.400;12.486;2023-08-24T00:02:12;20.80;99.90
13245;DHT22;6689;53.400;12.486;2023-08-24T00:04:39;20.70;99.90
13245;DHT22;6689;53.400;12.486;2023-08-24T00:07:07;20.70;99.90
13245;DHT22;6689;53.400;12.486;2023-08-24T00:09:34;20.70;99.90
13245;DHT22;6689;53.400;12.486;2023-08-24T00:12:01;20.70;99.90
13245;DHT22;6689;53.400;12.486;2023-08-24T00:14:29;20.70;99.90
13245;DHT22;6689;53.400;12.486;2023-08-24T00:16:56;20.70;99.90
13245;DHT22;6689;53.400;12.486;2023-08-24T00:19:27;20.70;99.90
13245;DHT22;6689;53.400;12.486;2023-08-24T00:21:55;20.70;99.90
13245;DHT22;6689;53.400;12.486;2023-08-24T00:24:23;20.70;99.90
13245;DHT22;6689;53.400;12.486;2023-08-24T00:26:51;20.70;99.90
13245;DHT22;6689;53.400;12.486;2023-08-24T00:29:18;20.70;99.90
13245;DHT22;6689;53.400;12.486;2023-08-24T00:31:47;20.70;99.90
13245;DHT22;6689;53.400;12.486;2023-08-24T00:34:14;20.70;99.90
13245;DHT22;6689;53.400;12.486;2023-08-24T00:36:43;20.70;99.90
13245;DHT22;6689;53.400;12.486;2023-08-24T00:39:12;20.70;99.90
13245;DHT22;6689;53.400;12.486;2023-08-24T00:41:39;20.60;99.90
13245;DHT22;6689;53.400;12.486;2023-08-24T00:44:07;20.60;99.90
13245;DHT22;6689;53.400;12.486;2023-08-24T00:46:34;20.60;99.90
13245;DHT22;6689;53.400;12.486;2023-08-24T00:49:02;20.60;99.90
13245;DHT22;6689;53.400;12.486;2023-08-24T00:51:30;20.60;99.90
13245;DHT22;6689;53.400;12.486;2023-08-24T00:53:59;20.60;99.90
13245;DHT22;6689;53.400;12.486;2023-08-24T00:56:26;20.60;99.90
13245;DHT22;6689;53.400;12.486;2023-08-24T00:58:56;20.60;99.90
13245;DHT22;6689;53.400;12.486;2023-08-24T01:01:26;20.50;99.90
13245;DHT22;6689;53.400;12.486;2023-08-24T01:03:54;20.50;99.90
13245;DHT22;6689;53.400;12.486;2023-08-24T01:06:23;20.40;99.90
13245;DHT22;6689;53.400;12.486;2023-08-24T01:08:51;20.40;99.90
13245;DHT22;6689;53.400;12.486;2023-08-24T01:11:29;20.40;99.90
13245;DHT22;6689;53.400;12.486;2023-08-24T01:14:08;20.40;99.90
13245;DHT22;6689;53.400;12.486;2023-08-24T01:16:43;20.40;99.90
13245;DHT22;6689;53.400;12.486;2023-08-24T01:19:25;20.40;99.90
13245;DHT22;6689;53.400;12.486;2023-08-24T01:22:02;20.40;99.90
13245;DHT22;6689;53.400;12.486;2023-08-24T01:24:33;20.40;99.90
13245;DHT22;6689;53.400;12.486;2023-08-24T01:27:05;20.40;99.90
13245;DHT22;6689;53.400;12.486;2023-08-24T01:29:32;20.40;99.90
13245;DHT22;6689;53.400;12.486;2023-08-24T01:32:00;20.30;99.90
13245;DHT22;6689;53.400;12.486;2023-08-24T01:34:27;20.30;99.90
13245;DHT22;6689;53.400;12.486;2023-08-24T01:36:54;20.30;99.90
13245;DHT22;6689;53.400;12.486;2023-08-24T01:39:29;20.30;99.90
13245;DHT22;6689;53.400;12.486;2023-08-24T01:42:02;20.30;99.90
13245;DHT22;6689;53.400;12.486;2023-08-24T01:44:36;20.30;99.90
13245;DHT22;6689;53.400;12.486;2023-08-24T01:47:05;20.20;99.90
13245;DHT22;6689;53.400;12.486;2023-08-24T01:49:35;20.20;99.90
13245;DHT22;6689;53.400;12.486;2023-08-24T01:52:04;20.30;99.90
13245;DHT22;6689;53.400;12.486;2023-08-24T01:54:32;20.20;99.90
13245;DHT22;6689;53.400;12.486;2023-08-24T01:57:00;20.20;99.90
13245;DHT22;6689;53.400;12.486;2023-08-24T01:59:28;20.20;99.90
13245;DHT22;6689;53.400;12.486;2023-08-24T02:01:56;20.20;99.90
13245;DHT22;6689;53.400;12.486;2023-08-24T02:04:23;20.20;99.90
13245;DHT22;6689;53.400;12.486;2023-08-24T02:06:51;20.20;99.90
13245;DHT22;6689;53.400;12.486;2023-08-24T02:09:18;20.20;99.90
13245;DHT22;6689;53.400;12.486;2023-08-24T02:11:46;20.20;99.90
13245;DHT22;6689;53.400;12.486;2023-08-24T02:14:13;20.20;99.90
13245;DHT22;6689;53.400;12.486;2023-08-24T02:16:40;20.20;99.90
13245;DHT22;6689;53.400;12.486;2023-08-24T02:19:09;20.20;99.90
13245;DHT22;6689;53.400;12.486;2023-08-24T02:21:36;20.10;99.90
13245;DHT22;6689;53.400;12.486;2023-08-24T02:24:05;20.10;99.90
13245;DHT22;6689;53.400;12.486;2023-08-24T02:26:32;20.10;99.90
13245;DHT22;6689;53.400;12.486;2023-08-24T02:29:00;20.10;99.90
13245;DHT22;6689;53.400;12.486;2023-08-24T02:31:27;20.20;99.90
13245;DHT22;6689;53.400;12.486;2023-08-24T02:33:54;20.10;99.90
13245;DHT22;6689;53.400;12.486;2023-08-24T02:36:23;20.10;99.90
13245;DHT22;6689;53.400;12.486;2023-08-24T02:38:51;20.10;99.90
13245;DHT22;6689;53.400;12.486;2023-08-24T02:41:18;20.10;99.90
13245;DHT22;6689;53.400;12.486;2023-08-24T02:43:45;20.10;99.90
13245;DHT22;6689;53.400;12.486;2023-08-24T02:46:12;20.10;99.90
13245;DHT22;6689;53.400;12.486;2023-08-24T02:48:39;20.10;99.90
13245;DHT22;6689;53.400;12.486;2023-08-24T02:51:08;20.10;99.90
13245;DHT22;6689;53.400;12.486;2023-08-24T02:53:37;20.10;99.90
13245;DHT22;6689;53.400;12.486;2023-08-24T02:56:04;20.10;99.90
13245;DHT22;6689;53.400;12.486;2023-08-24T02:58:32;20.10;99.90
13245;DHT22;6689;53.400;12.486;2023-08-24T03:01:04;20.10;99.90
13245;DHT22;6689;53.400;12.486;2023-08-24T03:03:32;20.00;99.90
13245;DHT22;6689;53.400;12.486;2023-08-24T03:06:01;20.00;99.90
13245;DHT22;6689;53.400;12.486;2023-08-24T03:08:29;20.10;99.90
13245;DHT22;6689;53.400;12.486;2023-08-24T03:10:59;20.00;99.90
13245;DHT22;6689;53.400;12.486;2023-08-24T03:13:27;20.10;99.90
13245;DHT22;6689;53.400;12.486;2023-08-24T03:15:55;20.00;99.90
13245;DHT22;6689;53.400;12.486;2023-08-24T03:18:22;20.00;99.90
13245;DHT22;6689;53.400;12.486;2023-08-24T03:20:50;20.00;99.90
13245;DHT22;6689;53.400;12.486;2023-08-24T03:23:17;20.00;99.90
13245;DHT22;6689;53.400;12.486;2023-08-24T03:25:45;20.00;99.90
13245;DHT22;6689;53.400;12.486;2023-08-24T03:28:13;20.00;99.90
13245;DHT22;6689;53.400;12.486;2023-08-24T03:30:46;20.00;99.90
13245;DHT22;6689;53.400;12.486;2023-08-24T03:33:14;20.00;99.90
13245;DHT22;6689;53.400;12.486;2023-08-24T03:35:42;20.00;99.90
13245;DHT22;6689;53.400;12.486;2023-08-24T03:38:09;20.00;99.90
13245;DHT22;6689;53.400;12.486;2023-08-24T03:40:38;20.00;99.90
13245;DHT22;6689;53.400;12.486;2023-08-24T03:43:05;20.00;99.90
13245;DHT22;6689;53.400;12.486;2023-08-24T03:45:34;20.00;99.90
13245;DHT22;6689;53.400;12.486;2023-08-24T03:48:02;20.00;99.90
13245;DHT22;6689;53.400;12.486;2023-08-24T03:50:29;20.00;99.90
13245;DHT22;6689;53.400;12.486;2023-08-24T03:52:56;20.00;99.90
13245;DHT22;6689;53.400;12.486;2023-08-24T03:55:23;19.90;99.90
13245;DHT22;6689;53.400;12.486;2023-08-24T03:57:51;19.90;99.90
13245;DHT22;6689;53.400;12.486;2023-08-24T04:00:20;19.90;99.90
13245;DHT22;6689;53.400;12.486;2023-08-24T04:02:49;19.90;99.90
13245;DHT22;6689;53.400;12.486;2023-08-24T04:05:16;19.90;99.90
13245;DHT22;6689;53.400;12.486;2023-08-24T04:07:44;19.90;99.90
13245;DHT22;6689;53.400;12.486;2023-08-24T04:10:11;19.80;99.90
13245;DHT22;6689;53.400;12.486;2023-08-24T04:12:38;19.80;99.90
13245;DHT22;6689;53.400;12.486;2023-08-24T04:15:06;19.80;99.90
13245;DHT22;6689;53.400;12.486;2023-08-24T04:17:33;19.80;99.90
13245;DHT22;6689;53.400;12.486;2023-08-24T04:20:02;19.80;99.90
13245;DHT22;6689;53.400;12.486;2023-08-24T04:22:32;19.80;99.90
13245;DHT22;6689;53.400;12.486;2023-08-24T04:24:59;19.70;99.90
13245;DHT22;6689;53.400;12.486;2023-08-24T04:27:27;19.80;99.90
13245;DHT22;6689;53.400;12.486;2023-08-24T04:29:54;19.80;99.90
13245;DHT22;6689;53.400;12.486;2023-08-24T04:32:22;19.80;99.90
13245;DHT22;6689;53.400;12.486;2023-08-24T04:34:50;19.70;99.90
13245;DHT22;6689;53.400;12.486;2023-08-24T04:37:18;19.70;99.90
13245;DHT22;6689;53.400;12.486;2023-08-24T04:39:46;19.80;99.90
13245;DHT22;6689;53.400;12.486;2023-08-24T04:42:13;19.70;99.90
13245;DHT22;6689;53.400;12.486;2023-08-24T04:44:41;19.70;99.90
13245;DHT22;6689;53.400;12.486;2023-08-24T04:47:08;19.70;99.90
13245;DHT22;6689;53.400;12.486;2023-08-24T04:49:36;19.70;99.90
13245;DHT22;6689;53.400;12.486;2023-08-24T04:52:04;19.70;99.90
13245;DHT22;6689;53.400;12.486;2023-08-24T04:54:33;19.70;99.90
13245;DHT22;6689;53.400;12.486;2023-08-24T04:57:00;19.70;99.90
13245;DHT22;6689;53.400;12.486;2023-08-24T04:59:27;19.80;99.90
13245;DHT22;6689;53.400;12.486;2023-08-24T05:01:54;19.80;99.90
13245;DHT22;6689;53.400;12.486;2023-08-24T05:04:22;19.80;99.90
13245;DHT22;6689;53.400;12.486;2023-08-24T05:06:49;19.80;99.90
13245;DHT22;6689;53.400;12.486;2023-08-24T05:09:16;19.80;99.90
13245;DHT22;6689;53.400;12.486;2023-08-24T05:11:45;19.80;99.90
13245;DHT22;6689;53.400;12.486;2023-08-24T05:14:15;19.90;99.90
13245;DHT22;6689;53.400;12.486;2023-08-24T05:16:42;19.90;99.90
13245;DHT22;6689;53.400;12.486;2023-08-24T05:19:09;19.90;99.90
13245;DHT22;6689;53.400;12.486;2023-08-24T05:21:37;19.90;99.90
13245;DHT22;6689;53.400;12.486;2023-08-24T05:24:04;19.90;99.90
13245;DHT22;6689;53.400;12.486;2023-08-24T05:26:31;19.90;99.90
13245;DHT22;6689;53.400;12.486;2023-08-24T05:29:00;19.90;99.90
13245;DHT22;6689;53.400;12.486;2023-08-24T05:31:28;20.00;99.90
13245;DHT22;6689;53.400;12.486;2023-08-24T05:33:55;20.00;99.90
13245;DHT22;6689;53.400;12.486;2023-08-24T05:36:22;20.00;99.90
13245;DHT22;6689;53.400;12.486;2023-08-24T05:38:50;20.00;99.90
13245;DHT22;6689;53.400;12.486;2023-08-24T05:41:22;20.10;99.90
13245;DHT22;6689;53.400;12.486;2023-08-24T05:43:49;20.10;99.90
13245;DHT22;6689;53.400;12.486;2023-08-24T05:46:19;20.20;99.90
13245;DHT22;6689;53.400;12.486;2023-08-24T05:48:49;20.30;99.90
13245;DHT22;6689;53.400;12.486;2023-08-24T05:51:16;20.30;99.90
13245;DHT22;6689;53.400;12.486;2023-08-24T05:53:43;20.40;99.90
13245;DHT22;6689;53.400;12.486;2023-08-24T05:56:10;20.50;99.90
13245;DHT22;6689;53.400;12.486;2023-08-24T05:58:38;20.50;99.90
13245;DHT22;6689;53.400;12.486;2023-08-24T06:01:08;20.60;99.90
13245;DHT22;6689;53.400;12.486;2023-08-24T06:03:36;20.70;99.90
13245;DHT22;6689;53.400;12.486;2023-08-24T06:06:04;20.70;99.90
13245;DHT22;6689;53.400;12.486;2023-08-24T06:08:31;20.80;99.90
13245;DHT22;6689;53.400;12.486;2023-08-24T06:10:59;21.00;99.90
13245;DHT22;6689;53.400;12.486;2023-08-24T06:13:26;21.10;99.90
13245;DHT22;6689;53.400;12.486;2023-08-24T06:15:56;21.10;99.90
13245;DHT22;6689;53.400;12.486;2023-08-24T06:18:23;21.30;99.90
13245;DHT22;6689;53.400;12.486;2023-08-24T06:20:52;21.50;99.90
13245;DHT22;6689;53.400;12.486;2023-08-24T06:23:20;21.50;99.90
13245;DHT22;6689;53.400;12.486;2023-08-24T06:25:48;21.70;99.90
13245;DHT22;6689;53.400;12.486;2023-08-24T06:28:15;21.80;99.90
13245;DHT22;6689;53.400;12.486;2023-08-24T06:30:42;21.90;99.90
13245;DHT22;6689;53.400;12.486;2023-08-24T06:33:11;22.20;99.90
13245;DHT22;6689;53.400;12.486;2023-08-24T06:35:40;22.40;99.90
13245;DHT22;6689;53.400;12.486;2023-08-24T06:38:11;22.70;99.90
13245;DHT22;6689;53.400;12.486;2023-08-24T06:40:39;23.00;99.90
13245;DHT22;6689;53.400;12.486;2023-08-24T06:43:06;23.20;99.90
13245;DHT22;6689;53.400;12.486;2023-08-24T06:45:36;23.50;99.90
13245;DHT22;6689;53.400;12.486;2023-08-24T06:48:03;23.90;99.90
13245;DHT22;6689;53.400;12.486;2023-08-24T06:50:32;24.10;99.90
13245;DHT22;6689;53.400;12.486;2023-08-24T06:52:59;24.80;99.90
13245;DHT22;6689;53.400;12.486;2023-08-24T06:55:28;25.40;99.90
13245;DHT22;6689;53.400;12.486;2023-08-24T06:57:56;25.90;99.90
13245;DHT22;6689;53.400;12.486;2023-08-24T07:00:24;26.30;99.90
13245;DHT22;6689;53.400;12.486;2023-08-24T07:02:51;26.40;99.90
13245;DHT22;6689;53.400;12.486;2023-08-24T07:05:19;26.90;99.90
13245;DHT22;6689;53.400;12.486;2023-08-24T07:07:46;28.30;99.90
13245;DHT22;6689;53.400;12.486;2023-08-24T07:10:13;29.60;99.90
13245;DHT22;6689;53.400;12.486;2023-08-24T07:12:42;29.10;99.90
13245;DHT22;6689;53.400;12.486;2023-08-24T07:15:11;28.90;99.90
13245;DHT22;6689;53.400;12.486;2023-08-24T07:17:38;29.60;99.90
13245;DHT22;6689;53.400;12.486;2023-08-24T07:20:07;31.00;99.90
13245;DHT22;6689;53.400;12.486;2023-08-24T07:22:35;31.90;74.10
13245;DHT22;6689;53.400;12.486;2023-08-24T07:25:03;32.20;42.50
13245;DHT22;6689;53.400;12.486;2023-08-24T07:27:32;33.00;41.60
13245;DHT22;6689;53.400;12.486;2023-08-24T07:30:01;33.40;39.20
13245;DHT22;6689;53.400;12.486;2023-08-24T07:32:31;33.80;27.70
13245;DHT22;6689;53.400;12.486;2023-08-24T07:34:58;32.80;29.30
13245;DHT22;6689;53.400;12.486;2023-08-24T07:37:26;32.70;42.30
13245;DHT22;6689;53.400;12.486;2023-08-24T07:39:53;31.10;55.60
13245;DHT22;6689;53.400;12.486;2023-08-24T07:42:21;30.30;77.10
13245;DHT22;6689;53.400;12.486;2023-08-24T07:44:48;29.50;96.10
13245;DHT22;6689;53.400;12.486;2023-08-24T07:47:17;29.00;97.00
13245;DHT22;6689;53.400;12.486;2023-08-24T07:49:44;28.60;99.90
13245;DHT22;6689;53.400;12.486;2023-08-24T07:52:12;28.20;99.90
13245;DHT22;6689;53.400;12.486;2023-08-24T07:54:39;27.90;99.90
13245;DHT22;6689;53.400;12.486;2023-08-24T07:57:07;27.80;99.90
13245;DHT22;6689;53.400;12.486;2023-08-24T07:59:34;27.50;99.90
13245;DHT22;6689;53.400;12.486;2023-08-24T08:02:02;27.60;99.90
13245;DHT22;6689;53.400;12.486;2023-08-24T08:04:31;27.30;99.90
13245;DHT22;6689;53.400;12.486;2023-08-24T08:06:58;27.30;99.90
13245;DHT22;6689;53.400;12.486;2023-08-24T08:09:25;27.30;99.90
13245;DHT22;6689;53.400;12.486;2023-08-24T08:11:53;27.30;99.90
13245;DHT22;6689;53.400;12.486;2023-08-24T08:14:20;27.20;99.90
13245;DHT22;6689;53.400;12.486;2023-08-24T08:16:47;27.20;99.90
13245;DHT22;6689;53.400;12.486;2023-08-24T08:19:15;27.20;99.90
13245;DHT22;6689;53.400;12.486;2023-08-24T08:21:46;27.30;99.90
13245;DHT22;6689;53.400;12.486;2023-08-24T08:24:13;27.30;99.90
13245;DHT22;6689;53.400;12.486;2023-08-24T08:26:40;27.10;99.90
13245;DHT22;6689;53.400;12.486;2023-08-24T08:29:08;27.30;99.90
13245;DHT22;6689;53.400;12.486;2023-08-24T08:31:35;27.30;99.90
13245;DHT22;6689;53.400;12.486;2023-08-24T08:34:03;27.40;99.90
13245;DHT22;6689;53.400;12.486;2023-08-24T08:36:30;27.40;99.90
13245;DHT22;6689;53.400;12.486;2023-08-24T08:38:59;27.40;99.90
13245;DHT22;6689;53.400;12.486;2023-08-24T08:41:30;27.30;99.90
13245;DHT22;6689;53.400;12.486;2023-08-24T08:43:58;27.30;99.90
13245;DHT22;6689;53.400;12.486;2023-08-24T08:46:27;27.40;99.90
13245;DHT22;6689;53.400;12.486;2023-08-24T08:48:55;27.50;99.90
13245;DHT22;6689;53.400;12.486;2023-08-24T08:51:23;27.60;99.90
13245;DHT22;6689;53.400;12.486;2023-08-24T08:53:51;27.70;99.90
13245;DHT22;6689;53.400;12.486;2023-08-24T08:56:20;27.70;99.90
13245;DHT22;6689;53.400;12.486;2023-08-24T08:58:47;27.80;99.90
13245;DHT22;6689;53.400;12.486;2023-08-24T09:01:15;27.90;99.90
13245;DHT22;6689;53.400;12.486;2023-08-24T09:03:44;27.90;99.90
13245;DHT22;6689;53.400;12.486;2023-08-24T09:06:11;28.00;99.90
13245;DHT22;6689;53.400;12.486;2023-08-24T09:08:39;28.00;99.90
13245;DHT22;6689;53.400;12.486;2023-08-24T09:11:06;28.00;99.90
13245;DHT22;6689;53.400;12.486;2023-08-24T09:13:39;28.00;99.90
13245;DHT22;6689;53.400;12.486;2023-08-24T09:16:07;28.00;99.90
13245;DHT22;6689;53.400;12.486;2023-08-24T09:18:43;28.10;99.90
13245;DHT22;6689;53.400;12.486;2023-08-24T09:21:11;28.20;99.90
13245;DHT22;6689;53.400;12.486;2023-08-24T09:23:43;28.20;99.90
13245;DHT22;6689;53.400;12.486;2023-08-24T09:26:11;28.20;99.90
13245;DHT22;6689;53.400;12.486;2023-08-24T09:28:42;28.30;99.90
13245;DHT22;6689;53.400;12.486;2023-08-24T09:31:12;28.40;99.90
13245;DHT22;6689;53.400;12.486;2023-08-24T09:33:42;28.50;99.90
13245;DHT22;6689;53.400;12.486;2023-08-24T09:36:14;28.50;99.90
13245;DHT22;6689;53.400;12.486;2023-08-24T09:38:46;28.60;99.90
13245;DHT22;6689;53.400;12.486;2023-08-24T09:41:15;28.60;99.90
13245;DHT22;6689;53.400;12.486;2023-08-24T09:43:44;28.60;99.90
13245;DHT22;6689;53.400;12.486;2023-08-24T09:46:11;28.70;99.90
13245;DHT22;6689;53.400;12.486;2023-08-24T09:48:38;28.70;93.70
13245;DHT22;6689;53.400;12.486;2023-08-24T09:51:06;28.80;99.90
13245;DHT22;6689;53.400;12.486;2023-08-24T09:53:37;28.80;86.40
13245;DHT22;6689;53.400;12.486;2023-08-24T09:56:09;28.80;99.90
13245;DHT22;6689;53.400;12.486;2023-08-24T09:58:37;28.70;88.00
13245;DHT22;6689;53.400;12.486;2023-08-24T10:01:06;28.80;99.90
13245;DHT22;6689;53.400;12.486;2023-08-24T10:03:37;28.80;86.60
13245;DHT22;6689;53.400;12.486;2023-08-24T10:06:06;28.80;82.40
13245;DHT22;6689;53.400;12.486;2023-08-24T10:08:42;28.90;89.30
13245;DHT22;6689;53.400;12.486;2023-08-24T10:11:13;29.10;86.20
13245;DHT22;6689;53.400;12.486;2023-08-24T10:13:48;29.20;99.90
13245;DHT22;6689;53.400;12.486;2023-08-24T10:16:20;29.40;84.70
13245;DHT22;6689;53.400;12.486;2023-08-24T10:18:49;29.50;82.00
13245;DHT22;6689;53.400;12.486;2023-08-24T10:21:18;29.60;69.20
13245;DHT22;6689;53.400;12.486;2023-08-24T10:23:46;29.80;67.70
13245;DHT22;6689;53.400;12.486;2023-08-24T10:26:14;29.70;51.30
13245;DHT22;6689;53.400;12.486;2023-08-24T10:28:43;29.60;58.10
13245;DHT22;6689;53.400;12.486;2023-08-24T10:31:11;29.40;62.20
13245;DHT22;6689;53.400;12.486;2023-08-24T10:33:41;29.50;62.20
13245;DHT22;6689;53.400;12.486;2023-08-24T10:36:10;29.20;66.20
13245;DHT22;6689;53.400;12.486;2023-08-24T10:38:41;29.10;81.70
13245;DHT22;6689;53.400;12.486;2023-08-24T10:41:09;29.10;83.50
13245;DHT22;6689;53.400;12.486;2023-08-24T10:43:40;29.30;73.00
13245;DHT22;6689;53.400;12.486;2023-08-24T10:46:14;29.40;56.70
13245;DHT22;6689;53.400;12.486;2023-08-24T10:48:59;29.30;68.70
13245;DHT22;6689;53.400;12.486;2023-08-24T10:51:30;29.50;55.20
13245;DHT22;6689;53.400;12.486;2023-08-24T10:53:58;29.60;58.30
13245;DHT22;6689;53.400;12.486;2023-08-24T10:56:34;29.70;62.20
13245;DHT22;6689;53.400;12.486;2023-08-24T10:59:15;29.60;49.30
13245;DHT22;6689;53.400;12.486;2023-08-24T11:01:54;29.60;52.50
13245;DHT22;6689;53.400;12.486;2023-08-24T11:04:27;29.50;46.20
13245;DHT22;6689;53.400;12.486;2023-08-24T11:06:55;29.70;48.70
13245;DHT22;6689;53.400;12.486;2023-08-24T11:09:25;29.60;37.10
13245;DHT22;6689;53.400;12.486;2023-08-24T11:11:57;29.80;34.30
13245;DHT22;6689;53.400;12.486;2023-08-24T11:14:25;29.70;40.10
13245;DHT22;6689;53.400;12.486;2023-08-24T11:16:54;29.70;43.10
13245;DHT22;6689;53.400;12.486;2023-08-24T11:19:27;29.70;49.50
13245;DHT22;6689;53.400;12.486;2023-08-24T11:21:56;29.60;43.80
13245;DHT22;6689;53.400;12.486;2023-08-24T11:24:25;29.60;46.30
13245;DHT22;6689;53.400;12.486;2023-08-24T11:26:52;29.50;51.80
13245;DHT22;6689;53.400;12.486;2023-08-24T11:29:20;29.40;56.80
13245;DHT22;6689;53.400;12.486;2023-08-24T11:31:47;29.30;48.60
13245;DHT22;6689;53.400;12.486;2023-08-24T11:34:15;29.00;50.70
13245;DHT22;6689;53.400;12.486;2023-08-24T11:36:47;29.00;88.70
13245;DHT22;6689;53.400;12.486;2023-08-24T11:39:16;29.20;53.60
13245;DHT22;6689;53.400;12.486;2023-08-24T11:41:56;29.10;47.30
13245;DHT22;6689;53.400;12.486;2023-08-24T11:44:24;29.00;46.00
13245;DHT22;6689;53.400;12.486;2023-08-24T11:46:51;29.10;47.10
13245;DHT22;6689;53.400;12.486;2023-08-24T11:49:19;29.30;36.80
13245;DHT22;6689;53.400;12.486;2023-08-24T11:51:48;29.40;33.90
13245;DHT22;6689;53.400;12.486;2023-08-24T11:54:17;29.70;38.80
13245;DHT22;6689;53.400;12.486;2023-08-24T11:56:46;29.90;34.90
13245;DHT22;6689;53.400;12.486;2023-08-24T11:59:15;29.80;24.70
13245;DHT22;6689;53.400;12.486;2023-08-24T12:01:43;29.90;30.00
13245;DHT22;6689;53.400;12.486;2023-08-24T12:04:11;30.00;23.10
13245;DHT22;6689;53.400;12.486;2023-08-24T12:06:38;30.20;28.70
13245;DHT22;6689;53.400;12.486;2023-08-24T12:09:07;30.40;19.60
13245;DHT22;6689;53.400;12.486;2023-08-24T12:11:36;30.60;24.30
13245;DHT22;6689;53.400;12.486;2023-08-24T12:14:04;30.70;14.20
13245;DHT22;6689;53.400;12.486;2023-08-24T12:16:35;30.90;13.40
13245;DHT22;6689;53.400;12.486;2023-08-24T12:19:07;30.90;11.80
13245;DHT22;6689;53.400;12.486;2023-08-24T12:21:36;31.00;7.70
13245;DHT22;6689;53.400;12.486;2023-08-24T12:24:05;31.10;6.80
13245;DHT22;6689;53.400;12.486;2023-08-24T12:26:36;31.30;2.50
13245;DHT22;6689;53.400;12.486;2023-08-24T12:29:06;31.40;2.60
13245;DHT22;6689;53.400;12.486;2023-08-24T12:31:34;31.40;7.00
13245;DHT22;6689;53.400;12.486;2023-08-24T12:34:02;31.40;3.40
13245;DHT22;6689;53.400;12.486;2023-08-24T12:36:30;31.50;2.80
13245;DHT22;6689;53.400;12.486;2023-08-24T12:38:59;31.40;1.00
13245;DHT22;6689;53.400;12.486;2023-08-24T12:41:26;31.50;1.00
13245;DHT22;6689;53.400;12.486;2023-08-24T12:43:55;31.40;1.00
13245;DHT22;6689;53.400;12.486;2023-08-24T12:46:23;31.40;2.10
13245;DHT22;6689;53.400;12.486;2023-08-24T12:48:51;31.30;1.00
13245;DHT22;6689;53.400;12.486;2023-08-24T12:51:19;31.40;1.00
13245;DHT22;6689;53.400;12.486;2023-08-24T12:53:46;31.30;1.00
13245;DHT22;6689;53.400;12.486;2023-08-24T12:56:13;31.50;1.00
13245;DHT22;6689;53.400;12.486;2023-08-24T12:58:41;31.50;1.00
13245;DHT22;6689;53.400;12.486;2023-08-24T13:01:11;31.60;1.00
13245;DHT22;6689;53.400;12.486;2023-08-24T13:03:39;31.60;1.00
13245;DHT22;6689;53.400;12.486;2023-08-24T13:06:06;31.70;1.00
13245;DHT22;6689;53.400;12.486;2023-08-24T13:08:33;31.60;1.00
13245;DHT22;6689;53.400;12.486;2023-08-24T13:11:01;31.50;1.00
13245;DHT22;6689;53.400;12.486;2023-08-24T13:13:29;31.40;1.00
13245;DHT22;6689;53.400;12.486;2023-08-24T13:15:56;31.40;1.00
13245;DHT22;6689;53.400;12.486;2023-08-24T13:18:26;31.30;1.00
13245;DHT22;6689;53.400;12.486;2023-08-24T13:20:54;31.30;1.00
13245;DHT22;6689;53.400;12.486;2023-08-24T13:23:22;31.30;11.50
13245;DHT22;6689;53.400;12.486;2023-08-24T13:25:52;31.20;16.50
13245;DHT22;6689;53.400;12.486;2023-08-24T13:28:21;31.20;1.00
13245;DHT22;6689;53.400;12.486;2023-08-24T13:30:48;31.20;1.00
13245;DHT22;6689;53.400;12.486;2023-08-24T13:33:16;31.10;6.50
13245;DHT22;6689;53.400;12.486;2023-08-24T13:35:46;31.00;6.00
13245;DHT22;6689;53.400;12.486;2023-08-24T13:38:13;30.90;1.00
13245;DHT22;6689;53.400;12.486;2023-08-24T13:40:41;30.90;8.10
13245;DHT22;6689;53.400;12.486;2023-08-24T13:43:09;30.80;7.30
13245;DHT22;6689;53.400;12.486;2023-08-24T13:45:37;30.80;8.10
13245;DHT22;6689;53.400;12.486;2023-08-24T13:48:06;30.90;7.50
13245;DHT22;6689;53.400;12.486;2023-08-24T13:50:34;30.80;1.00
13245;DHT22;6689;53.400;12.486;2023-08-24T13:53:03;30.90;1.00
13245;DHT22;6689;53.400;12.486;2023-08-24T13:55:30;30.90;5.40
13245;DHT22;6689;53.400;12.486;2023-08-24T13:57:58;30.90;1.00
13245;DHT22;6689;53.400;12.486;2023-08-24T14:00:25;30.80;1.60
13245;DHT22;6689;53.400;12.486;2023-08-24T14:02:53;30.70;5.10
13245;DHT22;6689;53.400;12.486;2023-08-24T14:05:20;30.60;6.30
13245;DHT22;6689;53.400;12.486;2023-08-24T14:07:48;30.80;1.50
13245;DHT22;6689;53.400;12.486;2023-08-24T14:10:18;30.90;3.60
13245;DHT22;6689;53.400;12.486;2023-08-24T14:12:46;30.80;6.00
13245;DHT22;6689;53.400;12.486;2023-08-24T14:15:14;30.80;7.60
13245;DHT22;6689;53.400;12.486;2023-08-24T14:17:41;30.80;8.10
13245;DHT22;6689;53.400;12.486;2023-08-24T14:20:09;30.80;8.40
13245;DHT22;6689;53.400;12.486;2023-08-24T14:22:38;30.80;1.80
13245;DHT22;6689;53.400;12.486;2023-08-24T14:25:07;30.90;8.40
13245;DHT22;6689;53.400;12.486;2023-08-24T14:27:36;30.90;6.30
13245;DHT22;6689;53.400;12.486;2023-08-24T14:30:06;31.00;12.10
13245;DHT22;6689;53.400;12.486;2023-08-24T14:32:34;30.90;3.70
13245;DHT22;6689;53.400;12.486;2023-08-24T14:35:01;30.80;1.00
13245;DHT22;6689;53.400;12.486;2023-08-24T14:37:29;30.60;1.00
13245;DHT22;6689;53.400;12.486;2023-08-24T14:39:59;30.50;1.30
13245;DHT22;6689;53.400;12.486;2023-08-24T14:42:26;30.60;8.50
13245;DHT22;6689;53.400;12.486;2023-08-24T14:44:57;30.70;7.80
13245;DHT22;6689;53.400;12.486;2023-08-24T14:47:25;30.60;4.60
13245;DHT22;6689;53.400;12.486;2023-08-24T14:49:52;30.60;1.60
13245;DHT22;6689;53.400;12.486;2023-08-24T14:52:20;30.60;2.30
13245;DHT22;6689;53.400;12.486;2023-08-24T14:54:48;30.50;3.90
13245;DHT22;6689;53.400;12.486;2023-08-24T14:57:15;30.60;5.50
13245;DHT22;6689;53.400;12.486;2023-08-24T14:59:43;30.50;7.10
13245;DHT22;6689;53.400;12.486;2023-08-24T15:02:13;30.40;6.20
13245;DHT22;6689;53.400;12.486;2023-08-24T15:04:41;30.50;9.00
13245;DHT22;6689;53.400;12.486;2023-08-24T15:07:08;30.50;13.60
13245;DHT22;6689;53.400;12.486;2023-08-24T15:09:37;30.40;10.30
13245;DHT22;6689;53.400;12.486;2023-08-24T15:12:05;30.40;12.40
13245;DHT22;6689;53.400;12.486;2023-08-24T15:14:32;30.30;4.40
13245;DHT22;6689;53.400;12.486;2023-08-24T15:17:00;30.10;5.40
13245;DHT22;6689;53.400;12.486;2023-08-24T15:19:29;29.80;11.60
13245;DHT22;6689;53.400;12.486;2023-08-24T15:21:57;29.80;14.10
13245;DHT22;6689;53.400;12.486;2023-08-24T15:24:24;29.80;18.90
13245;DHT22;6689;53.400;12.486;2023-08-24T15:26:52;29.80;31.40
13245;DHT22;6689;53.400;12.486;2023-08-24T15:29:20;29.70;48.80
13245;DHT22;6689;53.400;12.486;2023-08-24T15:31:50;29.60;50.70
13245;DHT22;6689;53.400;12.486;2023-08-24T15:34:18;29.70;56.40
13245;DHT22;6689;53.400;12.486;2023-08-24T15:36:48;29.70;48.70
13245;DHT22;6689;53.400;12.486;2023-08-24T15:39:15;29.50;38.70
13245;DHT22;6689;53.400;12.486;2023-08-24T15:41:43;29.60;36.50